Search for airport 
image banner adimage banner ad
image banner ad

DAOO - Oran/Ahmed Benbella

Located in Oran, Algeria

ICAO - DAOO, IATA - ORN

Data provided by Airmate  

General information

Coordinates: N35°37'38" W0°36'41"
Elevation is 298 feet MSL.
 
Rated:
View ratings: [VIEW]


View others Airports in Oran Province

Operational data

Open for public use
Current time UTC:
Current local time:
Weather
METAR: DAOO 130000Z 24008KT 9999 SCT026 FEW030CB 24/21 Q1015
TAF: TAF DAOO 122300Z 1300/1324 24008KT 9999 FEW030CB SCT233 BECMG 1301/1304 VRB02KT BECMG 1310/1313 32010KT CAVOK BECMG 1318/1321 VRB02KT BECMG 1321/1324 9999 FEW026CB SCT233
View NOTAMs / SUP AIP / TFR affecting this airport [VIEW]
Communications frequencies: [VIEW]

Runways:

RWY identifierQFULength (ft)Width (ft)SurfaceLDA (ft)
07R67°9843148
25L247°9843148
07L67°11811148
25R247°11811148

Airport contact information

Address: Oran Algeria

Satellite view of DAOO